sensor_id;sensor_type;location;lat;lon;timestamp;pressure;altitude;pressure_sealevel;temperature;humidity
72061;BME280;59925;52.136;5.420;2023-05-12T00:01:15;101896.28;;;11.75;96.34
72061;BME280;59925;52.136;5.420;2023-05-12T00:03:42;101899.53;;;11.77;96.14
72061;BME280;59925;52.136;5.420;2023-05-12T00:06:09;101893.59;;;11.75;96.44
72061;BME280;59925;52.136;5.420;2023-05-12T00:08:36;101901.09;;;11.73;96.56
72061;BME280;59925;52.136;5.420;2023-05-12T00:11:03;101899.44;;;11.72;96.67
72061;BME280;59925;52.136;5.420;2023-05-12T00:13:30;101893.28;;;11.71;97.06
72061;BME280;59925;52.136;5.420;2023-05-12T00:15:56;101892.22;;;11.72;97.07
72061;BME280;59925;52.136;5.420;2023-05-12T00:18:24;101890.59;;;11.71;97.18
72061;BME280;59925;52.136;5.420;2023-05-12T00:20:53;101886.78;;;11.67;97.35
72061;BME280;59925;52.136;5.420;2023-05-12T00:23:21;101890.53;;;11.66;97.24
72061;BME280;59925;52.136;5.420;2023-05-12T00:25:48;101888.09;;;11.64;97.52
72061;BME280;59925;52.136;5.420;2023-05-12T00:28:16;101881.59;;;11.60;97.62
72061;BME280;59925;52.136;5.420;2023-05-12T00:30:43;101879.97;;;11.59;97.54
72061;BME280;59925;52.136;5.420;2023-05-12T00:33:09;101877.53;;;11.58;97.79
72061;BME280;59925;52.136;5.420;2023-05-12T00:35:36;101876.19;;;11.55;98.08
72061;BME280;59925;52.136;5.420;2023-05-12T00:38:02;101875.91;;;11.57;98.04
72061;BME280;59925;52.136;5.420;2023-05-12T00:40:29;101876.75;;;11.57;98.19
72061;BME280;59925;52.136;5.420;2023-05-12T00:42:55;101879.44;;;11.57;98.23
72061;BME280;59925;52.136;5.420;2023-05-12T00:45:22;101874.06;;;11.57;98.13
72061;BME280;59925;52.136;5.420;2023-05-12T00:47:50;101869.97;;;11.55;98.20
72061;BME280;59925;52.136;5.420;2023-05-12T00:50:17;101869.69;;;11.51;98.09
72061;BME280;59925;52.136;5.420;2023-05-12T00:52:45;101871.56;;;11.50;98.07
72061;BME280;59925;52.136;5.420;2023-05-12T00:55:12;101872.09;;;11.53;98.52
72061;BME280;59925;52.136;5.420;2023-05-12T00:57:39;101863.56;;;11.56;98.46
72061;BME280;59925;52.136;5.420;2023-05-12T01:00:06;101871.03;;;11.54;98.55
72061;BME280;59925;52.136;5.420;2023-05-12T01:02:34;101865.09;;;11.52;98.89
72061;BME280;59925;52.136;5.420;2023-05-12T01:05:02;101860.00;;;11.50;98.82
72061;BME280;59925;52.136;5.420;2023-05-12T01:07:31;101863.44;;;11.45;99.05
72061;BME280;59925;52.136;5.420;2023-05-12T01:09:58;101855.88;;;11.42;98.63
72061;BME280;59925;52.136;5.420;2023-05-12T01:12:25;101854.31;;;11.46;98.79
72061;BME280;59925;52.136;5.420;2023-05-12T01:14:54;101851.06;;;11.44;98.97
72061;BME280;59925;52.136;5.420;2023-05-12T01:17:27;101850.28;;;11.44;99.06
72061;BME280;59925;52.136;5.420;2023-05-12T01:20:01;101849.94;;;11.40;99.11
72061;BME280;59925;52.136;5.420;2023-05-12T01:22:30;101845.63;;;11.39;99.24
72061;BME280;59925;52.136;5.420;2023-05-12T01:25:07;101843.50;;;11.41;99.39
72061;BME280;59925;52.136;5.420;2023-05-12T01:27:37;101848.09;;;11.41;99.29
72061;BME280;59925;52.136;5.420;2023-05-12T01:30:05;101842.16;;;11.39;99.53
72061;BME280;59925;52.136;5.420;2023-05-12T01:32:32;101838.09;;;11.36;99.72
72061;BME280;59925;52.136;5.420;2023-05-12T01:34:59;101841.88;;;11.40;99.93
72061;BME280;59925;52.136;5.420;2023-05-12T01:37:26;101840.81;;;11.41;99.97
72061;BME280;59925;52.136;5.420;2023-05-12T01:39:53;101834.41;;;11.42;100.00
72061;BME280;59925;52.136;5.420;2023-05-12T01:42:20;101845.41;;;11.41;100.00
72061;BME280;59925;52.136;5.420;2023-05-12T01:44:46;101845.31;;;11.35;100.00
72061;BME280;59925;52.136;5.420;2023-05-12T01:47:13;101839.72;;;11.37;100.00
72061;BME280;59925;52.136;5.420;2023-05-12T01:49:41;101844.84;;;11.39;100.00
72061;BME280;59925;52.136;5.420;2023-05-12T01:52:08;101842.41;;;11.37;100.00
72061;BME280;59925;52.136;5.420;2023-05-12T01:54:34;101844.25;;;11.37;100.00
72061;BME280;59925;52.136;5.420;2023-05-12T01:57:01;101856.06;;;11.35;100.00
72061;BME280;59925;52.136;5.420;2023-05-12T01:59:27;101842.41;;;11.37;100.00
72061;BME280;59925;52.136;5.420;2023-05-12T02:01:54;101851.25;;;11.38;100.00
72061;BME280;59925;52.136;5.420;2023-05-12T02:04:20;101845.59;;;11.34;100.00
72061;BME280;59925;52.136;5.420;2023-05-12T02:06:47;101846.16;;;11.36;100.00
72061;BME280;59925;52.136;5.420;2023-05-12T02:09:13;101843.47;;;11.36;100.00
72061;BME280;59925;52.136;5.420;2023-05-12T02:11:40;101850.47;;;11.37;100.00
72061;BME280;59925;52.136;5.420;2023-05-12T02:14:07;101842.63;;;11.35;100.00
72061;BME280;59925;52.136;5.420;2023-05-12T02:16:33;101843.47;;;11.36;100.00
72061;BME280;59925;52.136;5.420;2023-05-12T02:18:59;101846.16;;;11.36;100.00
72061;BME280;59925;52.136;5.420;2023-05-12T02:21:26;101833.78;;;11.35;100.00
72061;BME280;59925;52.136;5.420;2023-05-12T02:23:53;101836.47;;;11.35;100.00
72061;BME280;59925;52.136;5.420;2023-05-12T02:26:19;101842.63;;;11.35;100.00
72061;BME280;59925;52.136;5.420;2023-05-12T02:28:46;101840.22;;;11.34;100.00
72061;BME280;59925;52.136;5.420;2023-05-12T02:31:13;101837.53;;;11.34;100.00
72061;BME280;59925;52.136;5.420;2023-05-12T02:33:39;101832.38;;;11.32;100.00
72061;BME280;59925;52.136;5.420;2023-05-12T02:36:06;101829.66;;;11.27;100.00
72061;BME280;59925;52.136;5.420;2023-05-12T02:38:32;101830.47;;;11.28;100.00
72061;BME280;59925;52.136;5.420;2023-05-12T02:40:59;101827.78;;;11.28;100.00
72061;BME280;59925;52.136;5.420;2023-05-12T02:43:26;101830.47;;;11.28;100.00
72061;BME280;59925;52.136;5.420;2023-05-12T02:45:53;101831.78;;;11.25;100.00
72061;BME280;59925;52.136;5.420;2023-05-12T02:48:20;101829.91;;;11.26;100.00
72061;BME280;59925;52.136;5.420;2023-05-12T02:50:46;101832.59;;;11.26;100.00
72061;BME280;59925;52.136;5.420;2023-05-12T02:53:12;101829.66;;;11.27;100.00
72061;BME280;59925;52.136;5.420;2023-05-12T02:55:39;101816.25;;;11.27;100.00
72061;BME280;59925;52.136;5.420;2023-05-12T02:58:05;101821.03;;;11.25;100.00
72061;BME280;59925;52.136;5.420;2023-05-12T03:00:32;101823.47;;;11.27;100.00
72061;BME280;59925;52.136;5.420;2023-05-12T03:02:58;101825.34;;;11.26;100.00
72061;BME280;59925;52.136;5.420;2023-05-12T03:05:25;101822.94;;;11.25;100.00
72061;BME280;59925;52.136;5.420;2023-05-12T03:07:52;101825.63;;;11.25;100.00
72061;BME280;59925;52.136;5.420;2023-05-12T03:10:18;101821.84;;;11.26;100.00
72061;BME280;59925;52.136;5.420;2023-05-12T03:12:45;101821.03;;;11.25;100.00
72061;BME280;59925;52.136;5.420;2023-05-12T03:15:11;101822.09;;;11.24;100.00
72061;BME280;59925;52.136;5.420;2023-05-12T03:17:38;101818.63;;;11.24;100.00
72061;BME280;59925;52.136;5.420;2023-05-12T03:20:05;101820.25;;;11.25;100.00
72061;BME280;59925;52.136;5.420;2023-05-12T03:22:32;101816.47;;;11.26;100.00
72061;BME280;59925;52.136;5.420;2023-05-12T03:24:58;101809.25;;;11.26;100.00
72061;BME280;59925;52.136;5.420;2023-05-12T03:27:25;101819.16;;;11.26;100.00
72061;BME280;59925;52.136;5.420;2023-05-12T03:29:52;101819.41;;;11.24;100.00
72061;BME280;59925;52.136;5.420;2023-05-12T03:32:18;101819.16;;;11.26;100.00
72061;BME280;59925;52.136;5.420;2023-05-12T03:34:44;101817.00;;;11.23;100.00
72061;BME280;59925;52.136;5.420;2023-05-12T03:37:11;101816.47;;;11.26;100.00
72061;BME280;59925;52.136;5.420;2023-05-12T03:39:37;101813.28;;;11.29;100.00
72061;BME280;59925;52.136;5.420;2023-05-12T03:42:04;101811.19;;;11.31;100.00
72061;BME280;59925;52.136;5.420;2023-05-12T03:44:31;101812.72;;;11.27;100.00
72061;BME280;59925;52.136;5.420;2023-05-12T03:46:57;101806.06;;;11.29;100.00
72061;BME280;59925;52.136;5.420;2023-05-12T03:49:24;101811.19;;;11.31;100.00
72061;BME280;59925;52.136;5.420;2023-05-12T03:51:50;101809.00;;;11.28;100.00
72061;BME280;59925;52.136;5.420;2023-05-12T03:54:17;101808.50;;;11.31;100.00
72061;BME280;59925;52.136;5.420;2023-05-12T03:56:43;101806.59;;;11.31;100.00
72061;BME280;59925;52.136;5.420;2023-05-12T03:59:10;101806.59;;;11.31;100.00
72061;BME280;59925;52.136;5.420;2023-05-12T04:01:37;101802.31;;;11.30;100.00
72061;BME280;59925;52.136;5.420;2023-05-12T04:04:04;101802.88;;;11.32;100.00
72061;BME280;59925;52.136;5.420;2023-05-12T04:06:30;101798.88;;;11.35;100.00
72061;BME280;59925;52.136;5.420;2023-05-12T04:08:57;101794.88;;;11.38;100.00
72061;BME280;59925;52.136;5.420;2023-05-12T04:11:24;101801.59;;;11.40;100.00
72061;BME280;59925;52.136;5.420;2023-05-12T04:13:50;101807.31;;;11.44;100.00
72061;BME280;59925;52.136;5.420;2023-05-12T04:16:16;101800.63;;;11.46;100.00
72061;BME280;59925;52.136;5.420;2023-05-12T04:18:43;101801.69;;;11.45;100.00
72061;BME280;59925;52.136;5.420;2023-05-12T04:21:09;101807.63;;;11.47;100.00
72061;BME280;59925;52.136;5.420;2023-05-12T04:23:36;101811.66;;;11.50;100.00
72061;BME280;59925;52.136;5.420;2023-05-12T04:26:03;101811.41;;;11.52;100.00
72061;BME280;59925;52.136;5.420;2023-05-12T04:28:30;101809.53;;;11.52;100.00
72061;BME280;59925;52.136;5.420;2023-05-12T04:31:03;101809.53;;;11.52;100.00
72061;BME280;59925;52.136;5.420;2023-05-12T04:33:30;101813.84;;;11.53;100.00
72061;BME280;59925;52.136;5.420;2023-05-12T04:35:56;101816.53;;;11.53;100.00
72061;BME280;59925;52.136;5.420;2023-05-12T04:38:23;101821.66;;;11.55;100.00
72061;BME280;59925;52.136;5.420;2023-05-12T04:40:50;101823.84;;;11.58;100.00
72061;BME280;59925;52.136;5.420;2023-05-12T04:43:16;101813.66;;;11.60;100.00
72061;BME280;59925;52.136;5.420;2023-05-12T04:45:45;101824.13;;;11.61;100.00
72061;BME280;59925;52.136;5.420;2023-05-12T04:48:12;101823.34;;;11.61;100.00
72061;BME280;59925;52.136;5.420;2023-05-12T04:50:38;101821.44;;;11.61;100.00
72061;BME280;59925;52.136;5.420;2023-05-12T04:53:05;101830.34;;;11.62;100.00
72061;BME280;59925;52.136;5.420;2023-05-12T04:55:31;101829.28;;;11.63;100.00
72061;BME280;59925;52.136;5.420;2023-05-12T04:57:58;101830.38;;;11.67;100.00
72061;BME280;59925;52.136;5.420;2023-05-12T05:00:24;101842.50;;;11.70;100.00
72061;BME280;59925;52.136;5.420;2023-05-12T05:02:51;101847.34;;;11.73;100.00
72061;BME280;59925;52.136;5.420;2023-05-12T05:05:17;101850.59;;;11.75;100.00
72061;BME280;59925;52.136;5.420;2023-05-12T05:07:44;101848.75;;;11.75;100.00
72061;BME280;59925;52.136;5.420;2023-05-12T05:10:11;101849.31;;;11.77;100.00
72061;BME280;59925;52.136;5.420;2023-05-12T05:12:37;101858.72;;;11.80;100.00
72061;BME280;59925;52.136;5.420;2023-05-12T05:15:04;101860.66;;;11.85;100.00
72061;BME280;59925;52.136;5.420;2023-05-12T05:17:31;101867.16;;;11.89;100.00
72061;BME280;59925;52.136;5.420;2023-05-12T05:19:57;101864.78;;;11.92;100.00
72061;BME280;59925;52.136;5.420;2023-05-12T05:22:25;101870.69;;;11.94;100.00
72061;BME280;59925;52.136;5.420;2023-05-12T05:24:52;101872.31;;;11.95;100.00
72061;BME280;59925;52.136;5.420;2023-05-12T05:27:18;101875.34;;;11.99;100.00
72061;BME280;59925;52.136;5.420;2023-05-12T05:29:45;101879.69;;;12.05;100.00
72061;BME280;59925;52.136;5.420;2023-05-12T05:32:12;101871.97;;;12.09;100.00
72061;BME280;59925;52.136;5.420;2023-05-12T05:34:38;101873.31;;;12.11;100.00
72061;BME280;59925;52.136;5.420;2023-05-12T05:37:05;101879.81;;;12.16;100.00
72061;BME280;59925;52.136;5.420;2023-05-12T05:39:31;101878.22;;;12.20;100.00
72061;BME280;59925;52.136;5.420;2023-05-12T05:41:58;101868.03;;;12.22;100.00
72061;BME280;59925;52.136;5.420;2023-05-12T05:44:24;101863.22;;;12.24;100.00
72061;BME280;59925;52.136;5.420;2023-05-12T05:46:51;101866.47;;;12.26;100.00
72061;BME280;59925;52.136;5.420;2023-05-12T05:49:18;101873.19;;;12.29;100.00
72061;BME280;59925;52.136;5.420;2023-05-12T05:51:44;101873.50;;;12.32;100.00
72061;BME280;59925;52.136;5.420;2023-05-12T05:54:11;101885.06;;;12.33;100.00
72061;BME280;59925;52.136;5.420;2023-05-12T05:56:37;101892.88;;;12.34;100.00
72061;BME280;59925;52.136;5.420;2023-05-12T05:59:04;101894.00;;;12.38;100.00
72061;BME280;59925;52.136;5.420;2023-05-12T06:01:31;101886.22;;;12.42;100.00
72061;BME280;59925;52.136;5.420;2023-05-12T06:03:58;101890.81;;;12.47;100.00
72061;BME280;59925;52.136;5.420;2023-05-12T06:06:25;101894.06;;;12.49;100.00
72061;BME280;59925;52.136;5.420;2023-05-12T06:08:51;101901.63;;;12.52;100.00
72061;BME280;59925;52.136;5.420;2023-05-12T06:11:21;101899.00;;;12.57;100.00
72061;BME280;59925;52.136;5.420;2023-05-12T06:13:47;101898.72;;;12.59;100.00
72061;BME280;59925;52.136;5.420;2023-05-12T06:16:13;101904.41;;;12.62;100.00
72061;BME280;59925;52.136;5.420;2023-05-12T06:18:40;101908.22;;;12.66;100.00
72061;BME280;59925;52.136;5.420;2023-05-12T06:21:06;101906.59;;;12.70;100.00
72061;BME280;59925;52.136;5.420;2023-05-12T06:23:33;101900.47;;;12.75;100.00
72061;BME280;59925;52.136;5.420;2023-05-12T06:25:59;101911.25;;;12.80;100.00
72061;BME280;59925;52.136;5.420;2023-05-12T06:28:26;101920.19;;;12.86;100.00
72061;BME280;59925;52.136;5.420;2023-05-12T06:30:52;101921.59;;;12.94;100.00
72061;BME280;59925;52.136;5.420;2023-05-12T06:33:19;101918.94;;;12.99;100.00
72061;BME280;59925;52.136;5.420;2023-05-12T06:35:45;101923.81;;;13.07;100.00
72061;BME280;59925;52.136;5.420;2023-05-12T06:38:11;101921.19;;;13.12;100.00
72061;BME280;59925;52.136;5.420;2023-05-12T06:40:38;101920.16;;;13.24;100.00
72061;BME280;59925;52.136;5.420;2023-05-12T06:43:04;101924.25;;;13.31;100.00
72061;BME280;59925;52.136;5.420;2023-05-12T06:45:31;101931.25;;;13.32;100.00
72061;BME280;59925;52.136;5.420;2023-05-12T06:47:57;101940.16;;;13.38;100.00
72061;BME280;59925;52.136;5.420;2023-05-12T06:50:24;101934.78;;;13.38;100.00
72061;BME280;59925;52.136;5.420;2023-05-12T06:52:50;101940.97;;;13.39;100.00
72061;BME280;59925;52.136;5.420;2023-05-12T06:55:17;101937.28;;;13.45;100.00
72061;BME280;59925;52.136;5.420;2023-05-12T06:57:46;101942.66;;;13.45;100.00
72061;BME280;59925;52.136;5.420;2023-05-12T07:00:13;101938.38;;;13.49;100.00
72061;BME280;59925;52.136;5.420;2023-05-12T07:02:39;101936.25;;;13.56;100.00
72061;BME280;59925;52.136;5.420;2023-05-12T07:05:06;101944.38;;;13.67;99.68
72061;BME280;59925;52.136;5.420;2023-05-12T07:07:33;101944.69;;;13.75;99.61
72061;BME280;59925;52.136;5.420;2023-05-12T07:10:01;101937.97;;;13.83;99.41
72061;BME280;59925;52.136;5.420;2023-05-12T07:12:27;101939.88;;;13.88;99.33
72061;BME280;59925;52.136;5.420;2023-05-12T07:14:54;101950.69;;;14.03;99.29
72061;BME280;59925;52.136;5.420;2023-05-12T07:17:20;101950.22;;;14.22;98.95
72061;BME280;59925;52.136;5.420;2023-05-12T07:19:47;101951.56;;;14.35;98.57
72061;BME280;59925;52.136;5.420;2023-05-12T07:22:13;101949.97;;;14.44;98.06
72061;BME280;59925;52.136;5.420;2023-05-12T07:24:40;101952.13;;;14.57;97.61
72061;BME280;59925;52.136;5.420;2023-05-12T07:27:06;101957.31;;;14.69;96.70
72061;BME280;59925;52.136;5.420;2023-05-12T07:29:33;101959.44;;;14.78;96.04
72061;BME280;59925;52.136;5.420;2023-05-12T07:32:00;101961.34;;;14.88;95.95
72061;BME280;59925;52.136;5.420;2023-05-12T07:34:26;101952.16;;;14.99;96.01
72061;BME280;59925;52.136;5.420;2023-05-12T07:36:53;101959.69;;;15.17;95.70
72061;BME280;59925;52.136;5.420;2023-05-12T07:39:19;101949.91;;;15.37;95.17
72061;BME280;59925;52.136;5.420;2023-05-12T07:41:49;101957.97;;;15.53;94.79
72061;BME280;59925;52.136;5.420;2023-05-12T07:44:16;101958.72;;;15.74;93.65
72061;BME280;59925;52.136;5.420;2023-05-12T07:46:42;101966.50;;;15.91;93.18
72061;BME280;59925;52.136;5.420;2023-05-12T07:49:09;101967.97;;;16.18;92.18
72061;BME280;59925;52.136;5.420;2023-05-12T07:51:35;101963.47;;;16.43;91.69
72061;BME280;59925;52.136;5.420;2023-05-12T07:54:02;101966.13;;;16.53;90.56
72061;BME280;59925;52.136;5.420;2023-05-12T07:56:30;101972.03;;;16.60;90.31
72061;BME280;59925;52.136;5.420;2023-05-12T07:58:56;101968.53;;;16.60;89.34
72061;BME280;59925;52.136;5.420;2023-05-12T08:01:22;101972.88;;;16.55;88.73
72061;BME280;59925;52.136;5.420;2023-05-12T08:03:49;101973.31;;;16.68;88.37
72061;BME280;59925;52.136;5.420;2023-05-12T08:06:17;101969.13;;;16.81;87.58
72061;BME280;59925;52.136;5.420;2023-05-12T08:08:44;101972.63;;;16.87;85.95
72061;BME280;59925;52.136;5.420;2023-05-12T08:11:10;101973.94;;;16.94;86.13
72061;BME280;59925;52.136;5.420;2023-05-12T08:13:38;101972.69;;;17.11;84.73
72061;BME280;59925;52.136;5.420;2023-05-12T08:16:04;101975.94;;;17.13;84.84
72061;BME280;59925;52.136;5.420;2023-05-12T08:18:31;101968.69;;;17.33;83.97
72061;BME280;59925;52.136;5.420;2023-05-12T08:20:57;101975.13;;;17.37;83.53
72061;BME280;59925;52.136;5.420;2023-05-12T08:23:24;101973.47;;;17.41;82.89
72061;BME280;59925;52.136;5.420;2023-05-12T08:25:50;101980.34;;;17.57;81.03
72061;BME280;59925;52.136;5.420;2023-05-12T08:28:17;101981.25;;;17.72;80.97
72061;BME280;59925;52.136;5.420;2023-05-12T08:30:43;101981.56;;;17.89;82.60
72061;BME280;59925;52.136;5.420;2023-05-12T08:33:11;101982.13;;;18.11;82.04
72061;BME280;59925;52.136;5.420;2023-05-12T08:35:37;101978.00;;;18.13;82.05
72061;BME280;59925;52.136;5.420;2023-05-12T08:38:05;101988.06;;;18.13;81.50
72061;BME280;59925;52.136;5.420;2023-05-12T08:40:34;101988.66;;;18.10;80.74
72061;BME280;59925;52.136;5.420;2023-05-12T08:43:12;101990.72;;;18.18;79.38
72061;BME280;59925;52.136;5.420;2023-05-12T08:45:39;101986.63;;;18.20;79.60
72061;BME280;59925;52.136;5.420;2023-05-12T08:48:09;101989.16;;;18.31;78.21
72061;BME280;59925;52.136;5.420;2023-05-12T08:50:37;101989.53;;;18.43;78.32
72061;BME280;59925;52.136;5.420;2023-05-12T08:53:06;101992.59;;;18.56;77.51
72061;BME280;59925;52.136;5.420;2023-05-12T08:55:35;101996.09;;;18.75;77.69
72061;BME280;59925;52.136;5.420;2023-05-12T08:58:02;101995.25;;;18.94;76.13
72061;BME280;59925;52.136;5.420;2023-05-12T09:00:31;101997.91;;;18.99;75.86
72061;BME280;59925;52.136;5.420;2023-05-12T09:02:59;101995.31;;;19.22;75.20
72061;BME280;59925;52.136;5.420;2023-05-12T09:05:28;101998.34;;;19.34;74.58
72061;BME280;59925;52.136;5.420;2023-05-12T09:07:56;102000.94;;;19.25;72.77
72061;BME280;59925;52.136;5.420;2023-05-12T09:10:27;102001.28;;;19.52;72.38
72061;BME280;59925;52.136;5.420;2023-05-12T09:13:19;102001.88;;;19.76;71.71
72061;BME280;59925;52.136;5.420;2023-05-12T09:15:47;102014.47;;;19.72;73.21
72061;BME280;59925;52.136;5.420;2023-05-12T09:18:14;102003.50;;;19.78;72.72
72061;BME280;59925;52.136;5.420;2023-05-12T09:20:41;102009.56;;;19.88;73.71
72061;BME280;59925;52.136;5.420;2023-05-12T09:23:15;102014.56;;;19.81;71.05
72061;BME280;59925;52.136;5.420;2023-05-12T09:25:41;102009.34;;;19.85;71.36
72061;BME280;59925;52.136;5.420;2023-05-12T09:28:08;102012.28;;;19.88;70.15
72061;BME280;59925;52.136;5.420;2023-05-12T09:30:34;102007.63;;;19.75;68.93
72061;BME280;59925;52.136;5.420;2023-05-12T09:33:04;102012.66;;;19.68;70.95
72061;BME280;59925;52.136;5.420;2023-05-12T09:35:37;102017.00;;;19.69;69.48
72061;BME280;59925;52.136;5.420;2023-05-12T09:38:13;102016.09;;;19.73;69.81
72061;BME280;59925;52.136;5.420;2023-05-12T09:40:39;102021.03;;;19.71;68.13
72061;BME280;59925;52.136;5.420;2023-05-12T09:43:06;102023.84;;;19.66;66.44
72061;BME280;59925;52.136;5.420;2023-05-12T09:45:34;102022.03;;;19.62;67.26
72061;BME280;59925;52.136;5.420;2023-05-12T09:48:07;102021.22;;;19.61;67.87
72061;BME280;59925;52.136;5.420;2023-05-12T09:50:50;102026.34;;;19.49;67.96
72061;BME280;59925;52.136;5.420;2023-05-12T09:53:17;102034.31;;;19.59;68.65
72061;BME280;59925;52.136;5.420;2023-05-12T09:55:45;102034.13;;;19.83;69.20
72061;BME280;59925;52.136;5.420;2023-05-12T09:58:14;102032.50;;;20.10;67.61
72061;BME280;59925;52.136;5.420;2023-05-12T10:00:42;102038.97;;;20.51;68.56
72061;BME280;59925;52.136;5.420;2023-05-12T10:03:29;102035.75;;;20.94;65.28
72061;BME280;59925;52.136;5.420;2023-05-12T10:05:57;102025.47;;;21.14;66.30
72061;BME280;59925;52.136;5.420;2023-05-12T10:08:32;102030.19;;;21.31;64.43
72061;BME280;59925;52.136;5.420;2023-05-12T10:11:00;102030.84;;;21.37;63.40
72061;BME280;59925;52.136;5.420;2023-05-12T10:13:27;102030.28;;;21.49;64.66
72061;BME280;59925;52.136;5.420;2023-05-12T10:15:55;102037.28;;;21.72;62.77
72061;BME280;59925;52.136;5.420;2023-05-12T10:18:23;102032.13;;;21.71;61.86
72061;BME280;59925;52.136;5.420;2023-05-12T10:20:51;102031.34;;;21.79;62.32
72061;BME280;59925;52.136;5.420;2023-05-12T10:23:19;102032.50;;;21.87;61.93
72061;BME280;59925;52.136;5.420;2023-05-12T10:25:46;102031.97;;;21.76;59.31
72061;BME280;59925;52.136;5.420;2023-05-12T10:28:12;102027.34;;;21.77;61.47
72061;BME280;59925;52.136;5.420;2023-05-12T10:30:40;102021.72;;;21.82;58.54
72061;BME280;59925;52.136;5.420;2023-05-12T10:33:07;102030.53;;;21.79;61.81
72061;BME280;59925;52.136;5.420;2023-05-12T10:35:38;102037.31;;;21.99;59.86
72061;BME280;59925;52.136;5.420;2023-05-12T10:38:13;102028.66;;;22.14;58.87
72061;BME280;59925;52.136;5.420;2023-05-12T10:43:23;102032.56;;;22.66;57.81
72061;BME280;59925;52.136;5.420;2023-05-12T10:46:14;102030.13;;;22.82;57.25
72061;BME280;59925;52.136;5.420;2023-05-12T10:49:09;102033.75;;;23.13;55.01
72061;BME280;59925;52.136;5.420;2023-05-12T10:54:09;102026.31;;;22.57;53.59
72061;BME280;59925;52.136;5.420;2023-05-12T10:59:30;102023.69;;;22.95;55.50
72061;BME280;59925;52.136;5.420;2023-05-12T11:07:03;102026.69;;;23.03;53.35
72061;BME280;59925;52.136;5.420;2023-05-12T11:09:34;102031.41;;;22.93;54.94
72061;BME280;59925;52.136;5.420;2023-05-12T11:12:05;102025.22;;;23.14;55.35
72061;BME280;59925;52.136;5.420;2023-05-12T11:14:34;102025.00;;;23.37;54.21
72061;BME280;59925;52.136;5.420;2023-05-12T11:17:01;102025.91;;;23.50;50.52
72061;BME280;59925;52.136;5.420;2023-05-12T11:19:28;102022.72;;;23.39;52.49
72061;BME280;59925;52.136;5.420;2023-05-12T11:21:55;102026.06;;;23.53;52.41
72061;BME280;59925;52.136;5.420;2023-05-12T11:24:22;102023.66;;;23.52;52.41
72061;BME280;59925;52.136;5.420;2023-05-12T11:26:49;102027.78;;;23.28;50.78
72061;BME280;59925;52.136;5.420;2023-05-12T11:29:18;102036.00;;;23.10;53.58
72061;BME280;59925;52.136;5.420;2023-05-12T11:31:51;102032.16;;;23.11;53.17
72061;BME280;59925;52.136;5.420;2023-05-12T11:34:22;102030.34;;;23.24;52.03
72061;BME280;59925;52.136;5.420;2023-05-12T11:36:51;102037.78;;;23.24;50.29
72061;BME280;59925;52.136;5.420;2023-05-12T11:39:23;102033.78;;;23.04;51.02
72061;BME280;59925;52.136;5.420;2023-05-12T11:41:50;102033.06;;;23.33;53.20
72061;BME280;59925;52.136;5.420;2023-05-12T11:44:31;102037.66;;;23.50;50.55
72061;BME280;59925;52.136;5.420;2023-05-12T11:49:49;102036.34;;;23.86;51.11
72061;BME280;59925;52.136;5.420;2023-05-12T11:52:18;102030.03;;;24.16;50.42
72061;BME280;59925;52.136;5.420;2023-05-12T11:54:52;102028.56;;;24.40;49.70
72061;BME280;59925;52.136;5.420;2023-05-12T11:57:28;102030.75;;;24.46;49.87
72061;BME280;59925;52.136;5.420;2023-05-12T12:00:05;102033.22;;;24.60;49.03
72061;BME280;59925;52.136;5.420;2023-05-12T12:02:33;102033.06;;;24.78;48.25
72061;BME280;59925;52.136;5.420;2023-05-12T12:05:02;102034.09;;;24.52;47.20
72061;BME280;59925;52.136;5.420;2023-05-12T12:07:33;102041.78;;;24.38;47.01
72061;BME280;59925;52.136;5.420;2023-05-12T12:10:10;102042.78;;;24.54;48.71
72061;BME280;59925;52.136;5.420;2023-05-12T12:12:38;102040.72;;;24.30;47.58
72061;BME280;59925;52.136;5.420;2023-05-12T12:15:05;102037.31;;;24.12;47.67
72061;BME280;59925;52.136;5.420;2023-05-12T12:17:31;102033.19;;;24.06;46.41
72061;BME280;59925;52.136;5.420;2023-05-12T12:19:58;102037.84;;;24.47;48.21
72061;BME280;59925;52.136;5.420;2023-05-12T12:22:24;102034.69;;;24.58;47.40
72061;BME280;59925;52.136;5.420;2023-05-12T12:24:51;102037.34;;;24.67;46.30
72061;BME280;59925;52.136;5.420;2023-05-12T12:27:17;102034.94;;;24.86;48.79
72061;BME280;59925;52.136;5.420;2023-05-12T12:29:44;102028.13;;;25.17;47.13
72061;BME280;59925;52.136;5.420;2023-05-12T12:32:10;102034.63;;;25.00;44.38
72061;BME280;59925;52.136;5.420;2023-05-12T12:34:37;102038.94;;;24.89;45.43
72061;BME280;59925;52.136;5.420;2023-05-12T12:37:03;102038.63;;;24.69;46.42
72061;BME280;59925;52.136;5.420;2023-05-12T12:39:30;102042.44;;;24.56;45.92
72061;BME280;59925;52.136;5.420;2023-05-12T12:41:57;102036.13;;;24.43;47.03
72061;BME280;59925;52.136;5.420;2023-05-12T12:44:24;102043.63;;;24.33;48.45
72061;BME280;59925;52.136;5.420;2023-05-12T12:46:50;102046.19;;;24.51;49.04
72061;BME280;59925;52.136;5.420;2023-05-12T12:49:16;102040.25;;;24.49;47.80
72061;BME280;59925;52.136;5.420;2023-05-12T12:51:43;102043.22;;;24.44;48.13
72061;BME280;59925;52.136;5.420;2023-05-12T12:54:12;102041.31;;;24.57;46.50
72061;BME280;59925;52.136;5.420;2023-05-12T12:56:39;102043.66;;;24.67;47.55
72061;BME280;59925;52.136;5.420;2023-05-12T12:59:06;102040.63;;;24.81;48.02
72061;BME280;59925;52.136;5.420;2023-05-12T13:01:32;102043.06;;;24.95;47.60
72061;BME280;59925;52.136;5.420;2023-05-12T13:03:59;102046.16;;;25.06;48.36